Aviation Digital Data Service (ADDS)

Output produced by METARs form (0013 UTC 20 April 2019)
found at http://www.aviationweather.gov/metar/data/
 
METAR text: UWKD 200000Z VRB01MPS CAVOK M01/M05 Q1024 R11/CLRD70 NOSIG RMK QFE758/1011
Conditions at: UWKD (KAZAN , RU) observed 0000 UTC 20 April 2019
Temperature: -1.0°C (30°F)
Dewpoint: -5.0°C (23°F) [RH = 74%]
Pressure (altimeter): 30.24 inches Hg (1024.0 mb)
Winds: variable direction winds at 2 MPH (2 knots; 1.0 m/s)
Visibility: 6 or more miles (10+ km)
Ceiling: ceiling and visibility are OK
Clouds: unknown
Weather: no significant weather observed at this time

METAR text: UWKD 192330Z 09002MPS CAVOK 02/M08 Q1024 R11/70D NOSIG RMK QFE758/1010
Conditions at: UWKD (KAZAN , RU) observed 2330 UTC 19 April 2019
Temperature: 2.0°C (36°F)
Dewpoint: -8.0°C (18°F) [RH = 47%]
Pressure (altimeter): 30.24 inches Hg (1024.0 mb)
Winds: from the E (90 degrees) at 5 MPH (4 knots; 2.1 m/s)
Visibility: 6 or more miles (10+ km)
Ceiling: ceiling and visibility are OK
Clouds: unknown
Weather: no significant weather observed at this time

METAR text: UWKD 192300Z 08003MPS CAVOK 03/M09 Q1024 R11/CLRD70 NOSIG RMK QFE758/1010
Conditions at: UWKD (KAZAN , RU) observed 2300 UTC 19 April 2019
Temperature: 3.0°C (37°F)
Dewpoint: -9.0°C (16°F) [RH = 41%]
Pressure (altimeter): 30.24 inches Hg (1024.0 mb)
Winds: from the E (80 degrees) at 7 MPH (6 knots; 3.1 m/s)
Visibility: 6 or more miles (10+ km)
Ceiling: ceiling and visibility are OK
Clouds: unknown
Weather: no significant weather observed at this time

METAR text: UWKD 192230Z 08003MPS CAVOK 02/M07 Q1024 R11/CLRD70 NOSIG RMK QFE758/1011
Conditions at: UWKD (KAZAN , RU) observed 2230 UTC 19 April 2019
Temperature: 2.0°C (36°F)
Dewpoint: -7.0°C (19°F) [RH = 51%]
Pressure (altimeter): 30.24 inches Hg (1024.0 mb)
Winds: from the E (80 degrees) at 7 MPH (6 knots; 3.1 m/s)
Visibility: 6 or more miles (10+ km)
Ceiling: ceiling and visibility are OK
Clouds: unknown
Weather: no significant weather observed at this time

METAR text: UWKD 192200Z 08003MPS CAVOK 01/M08 Q1024 R11/CLRD70 NOSIG RMK QFE758/1011
Conditions at: UWKD (KAZAN , RU) observed 2200 UTC 19 April 2019
Temperature: 1.0°C (34°F)
Dewpoint: -8.0°C (18°F) [RH = 51%]
Pressure (altimeter): 30.24 inches Hg (1024.0 mb)
Winds: from the E (80 degrees) at 7 MPH (6 knots; 3.1 m/s)
Visibility: 6 or more miles (10+ km)
Ceiling: ceiling and visibility are OK
Clouds: unknown
Weather: no significant weather observed at this time

METAR text: UWKD 192130Z 08003MPS CAVOK 03/M09 Q1024 R11/CLRD70 NOSIG RMK QFE758/1011
Conditions at: UWKD (KAZAN , RU) observed 2130 UTC 19 April 2019
Temperature: 3.0°C (37°F)
Dewpoint: -9.0°C (16°F) [RH = 41%]
Pressure (altimeter): 30.24 inches Hg (1024.0 mb)
Winds: from the E (80 degrees) at 7 MPH (6 knots; 3.1 m/s)
Visibility: 6 or more miles (10+ km)
Ceiling: ceiling and visibility are OK
Clouds: unknown
Weather: no significant weather observed at this time

METAR text: UWKD 192100Z 07003MPS CAVOK 01/M08 Q1025 R11/CLRD70 NOSIG RMK QFE758/1011
Conditions at: UWKD (KAZAN , RU) observed 2100 UTC 19 April 2019
Temperature: 1.0°C (34°F)
Dewpoint: -8.0°C (18°F) [RH = 51%]
Pressure (altimeter): 30.27 inches Hg (1025.0 mb)
Winds: from the ENE (70 degrees) at 7 MPH (6 knots; 3.1 m/s)
Visibility: 6 or more miles (10+ km)
Ceiling: ceiling and visibility are OK
Clouds: unknown
Weather: no significant weather observed at this time

METAR text: UWKD 192030Z VRB01MPS CAVOK 00/M07 Q1025 R11/70D NOSIG RMK QFE758/1011
Conditions at: UWKD (KAZAN , RU) observed 2030 UTC 19 April 2019
Temperature: 0.0°C (32°F)
Dewpoint: -7.0°C (19°F) [RH = 59%]
Pressure (altimeter): 30.27 inches Hg (1025.0 mb)
Winds: variable direction winds at 2 MPH (2 knots; 1.0 m/s)
Visibility: 6 or more miles (10+ km)
Ceiling: ceiling and visibility are OK
Clouds: unknown
Weather: no significant weather observed at this time

METAR text: UWKD 192000Z 15003MPS CAVOK 01/M09 Q1025 R11/CLRD70 NOSIG RMK QFE758/1011
Conditions at: UWKD (KAZAN , RU) observed 2000 UTC 19 April 2019
Temperature: 1.0°C (34°F)
Dewpoint: -9.0°C (16°F) [RH = 47%]
Pressure (altimeter): 30.27 inches Hg (1025.0 mb)
Winds: from the SSE (150 degrees) at 7 MPH (6 knots; 3.1 m/s)
Visibility: 6 or more miles (10+ km)
Ceiling: ceiling and visibility are OK
Clouds: unknown
Weather: no significant weather observed at this time

METAR text: UWKD 191930Z 12003MPS CAVOK 01/M08 Q1025 R11/70D NOSIG RMK QFE758/1011
Conditions at: UWKD (KAZAN , RU) observed 1930 UTC 19 April 2019
Temperature: 1.0°C (34°F)
Dewpoint: -8.0°C (18°F) [RH = 51%]
Pressure (altimeter): 30.27 inches Hg (1025.0 mb)
Winds: from the ESE (120 degrees) at 7 MPH (6 knots; 3.1 m/s)
Visibility: 6 or more miles (10+ km)
Ceiling: ceiling and visibility are OK
Clouds: unknown
Weather: no significant weather observed at this time

METAR text: UWKD 191900Z 13003MPS CAVOK 01/M08 Q1025 R11/70D NOSIG RMK QFE758/1011
Conditions at: UWKD (KAZAN , RU) observed 1900 UTC 19 April 2019
Temperature: 1.0°C (34°F)
Dewpoint: -8.0°C (18°F) [RH = 51%]
Pressure (altimeter): 30.27 inches Hg (1025.0 mb)
Winds: from the SE (130 degrees) at 7 MPH (6 knots; 3.1 m/s)
Visibility: 6 or more miles (10+ km)
Ceiling: ceiling and visibility are OK
Clouds: unknown
Weather: no significant weather observed at this time

METAR text: UWKD 191830Z 12003MPS CAVOK 01/M06 Q1025 R11/70D NOSIG RMK QFE758/1011
Conditions at: UWKD (KAZAN , RU) observed 1830 UTC 19 April 2019
Temperature: 1.0°C (34°F)
Dewpoint: -6.0°C (21°F) [RH = 59%]
Pressure (altimeter): 30.27 inches Hg (1025.0 mb)
Winds: from the ESE (120 degrees) at 7 MPH (6 knots; 3.1 m/s)
Visibility: 6 or more miles (10+ km)
Ceiling: ceiling and visibility are OK
Clouds: unknown
Weather: no significant weather observed at this time

METAR text: UWKD 191800Z 13003MPS CAVOK 03/M07 Q1025 R11/CLRD70 NOSIG RMK QFE758/1011
Conditions at: UWKD (KAZAN , RU) observed 1800 UTC 19 April 2019
Temperature: 3.0°C (37°F)
Dewpoint: -7.0°C (19°F) [RH = 48%]
Pressure (altimeter): 30.27 inches Hg (1025.0 mb)
Winds: from the SE (130 degrees) at 7 MPH (6 knots; 3.1 m/s)
Visibility: 6 or more miles (10+ km)
Ceiling: ceiling and visibility are OK
Clouds: unknown
Weather: no significant weather observed at this time

METAR text: UWKD 191730Z 12003MPS CAVOK 02/M07 Q1025 R11/70D NOSIG RMK QFE758/1011
Conditions at: UWKD (KAZAN , RU) observed 1730 UTC 19 April 2019
Temperature: 2.0°C (36°F)
Dewpoint: -7.0°C (19°F) [RH = 51%]
Pressure (altimeter): 30.27 inches Hg (1025.0 mb)
Winds: from the ESE (120 degrees) at 7 MPH (6 knots; 3.1 m/s)
Visibility: 6 or more miles (10+ km)
Ceiling: ceiling and visibility are OK
Clouds: unknown
Weather: no significant weather observed at this time

METAR text: UWKD 191700Z 12003MPS CAVOK 03/M07 Q1025 R11/70D NOSIG RMK QFE758/1011
Conditions at: UWKD (KAZAN , RU) observed 1700 UTC 19 April 2019
Temperature: 3.0°C (37°F)
Dewpoint: -7.0°C (19°F) [RH = 48%]
Pressure (altimeter): 30.27 inches Hg (1025.0 mb)
Winds: from the ESE (120 degrees) at 7 MPH (6 knots; 3.1 m/s)
Visibility: 6 or more miles (10+ km)
Ceiling: ceiling and visibility are OK
Clouds: unknown
Weather: no significant weather observed at this time

METAR text: UWKD 191630Z 13002MPS 060V170 CAVOK 04/M07 Q1025 R29/70D NOSIG RMK QFE757/1010
Conditions at: UWKD (KAZAN , RU) observed 1630 UTC 19 April 2019
Temperature: 4.0°C (39°F)
Dewpoint: -7.0°C (19°F) [RH = 44%]
Pressure (altimeter): 30.27 inches Hg (1025.0 mb)
Winds: from the SE (130 degrees) at 5 MPH (4 knots; 2.1 m/s)
Visibility: 6 or more miles (10+ km)
Ceiling: ceiling and visibility are OK
Clouds: unknown
Weather: no significant weather observed at this time

METAR text: UWKD 191600Z 15003MPS CAVOK 05/M08 Q1025 R29/CLRD70 NOSIG RMK QFE757/1010
Conditions at: UWKD (KAZAN , RU) observed 1600 UTC 19 April 2019
Temperature: 5.0°C (41°F)
Dewpoint: -8.0°C (18°F) [RH = 38%]
Pressure (altimeter): 30.27 inches Hg (1025.0 mb)
Winds: from the SSE (150 degrees) at 7 MPH (6 knots; 3.1 m/s)
Visibility: 6 or more miles (10+ km)
Ceiling: ceiling and visibility are OK
Clouds: unknown
Weather: no significant weather observed at this time

METAR text: UWKD 191530Z 15002MPS 030V190 CAVOK 07/M11 Q1024 R29/70D NOSIG RMK QFE757/1009
Conditions at: UWKD (KAZAN , RU) observed 1530 UTC 19 April 2019
Temperature: 7.0°C (45°F)
Dewpoint: -11.0°C (12°F) [RH = 26%]
Pressure (altimeter): 30.24 inches Hg (1024.0 mb)
Winds: from the SSE (150 degrees) at 5 MPH (4 knots; 2.1 m/s)
Visibility: 6 or more miles (10+ km)
Ceiling: ceiling and visibility are OK
Clouds: unknown
Weather: no significant weather observed at this time

METAR text: UWKD 191500Z 34002MPS CAVOK 09/M12 Q1024 R29/CLRD70 NOSIG RMK QFE757/1009
Conditions at: UWKD (KAZAN , RU) observed 1500 UTC 19 April 2019
Temperature: 9.0°C (48°F)
Dewpoint: -12.0°C (10°F) [RH = 21%]
Pressure (altimeter): 30.24 inches Hg (1024.0 mb)
Winds: from the NNW (340 degrees) at 5 MPH (4 knots; 2.1 m/s)
Visibility: 6 or more miles (10+ km)
Ceiling: ceiling and visibility are OK
Clouds: unknown
Weather: no significant weather observed at this time

METAR text: UWKD 191430Z 30004MPS CAVOK 09/M13 Q1025 R29/70D NOSIG RMK QFE757/1010
Conditions at: UWKD (KAZAN , RU) observed 1430 UTC 19 April 2019
Temperature: 9.0°C (48°F)
Dewpoint: -13.0°C ( 9°F) [RH = 20%]
Pressure (altimeter): 30.27 inches Hg (1025.0 mb)
Winds: from the WNW (300 degrees) at 9 MPH (8 knots; 4.1 m/s)
Visibility: 6 or more miles (10+ km)
Ceiling: ceiling and visibility are OK
Clouds: unknown
Weather: no significant weather observed at this time

METAR text: UWKD 191400Z 29002MPS CAVOK 10/M14 Q1025 R29/70D NOSIG RMK QFE757/1010
Conditions at: UWKD (KAZAN , RU) observed 1400 UTC 19 April 2019
Temperature: 10.0°C (50°F)
Dewpoint: -14.0°C ( 7°F) [RH = 17%]
Pressure (altimeter): 30.27 inches Hg (1025.0 mb)
Winds: from the WNW (290 degrees) at 5 MPH (4 knots; 2.1 m/s)
Visibility: 6 or more miles (10+ km)
Ceiling: ceiling and visibility are OK
Clouds: unknown
Weather: no significant weather observed at this time

METAR text: UWKD 191330Z 30004MPS 260V340 CAVOK 10/M14 Q1025 R29/70D NOSIG RMK QFE757/1010
Conditions at: UWKD (KAZAN , RU) observed 1330 UTC 19 April 2019
Temperature: 10.0°C (50°F)
Dewpoint: -14.0°C ( 7°F) [RH = 17%]
Pressure (altimeter): 30.27 inches Hg (1025.0 mb)
Winds: from the WNW (300 degrees) at 9 MPH (8 knots; 4.1 m/s)
Visibility: 6 or more miles (10+ km)
Ceiling: ceiling and visibility are OK
Clouds: unknown
Weather: no significant weather observed at this time

METAR text: UWKD 191300Z 29004MPS 270V330 CAVOK 10/M14 Q1025 R11/CLRD70 NOSIG RMK QFE758/1011
Conditions at: UWKD (KAZAN , RU) observed 1300 UTC 19 April 2019
Temperature: 10.0°C (50°F)
Dewpoint: -14.0°C ( 7°F) [RH = 17%]
Pressure (altimeter): 30.27 inches Hg (1025.0 mb)
Winds: from the WNW (290 degrees) at 9 MPH (8 knots; 4.1 m/s)
Visibility: 6 or more miles (10+ km)
Ceiling: ceiling and visibility are OK
Clouds: unknown
Weather: no significant weather observed at this time

METAR text: UWKD 191230Z VRB01MPS CAVOK 10/M14 Q1025 R11/70D NOSIG RMK QFE758/1011
Conditions at: UWKD (KAZAN , RU) observed 1230 UTC 19 April 2019
Temperature: 10.0°C (50°F)
Dewpoint: -14.0°C ( 7°F) [RH = 17%]
Pressure (altimeter): 30.27 inches Hg (1025.0 mb)
Winds: variable direction winds at 2 MPH (2 knots; 1.0 m/s)
Visibility: 6 or more miles (10+ km)
Ceiling: ceiling and visibility are OK
Clouds: unknown
Weather: no significant weather observed at this time

METAR text: UWKD 191200Z 07003MPS 030V110 CAVOK 10/M15 Q1025 R29/70D NOSIG RMK QFE758/1010
Conditions at: UWKD (KAZAN , RU) observed 1200 UTC 19 April 2019
Temperature: 10.0°C (50°F)
Dewpoint: -15.0°C ( 5°F) [RH = 16%]
Pressure (altimeter): 30.27 inches Hg (1025.0 mb)
Winds: from the ENE (70 degrees) at 7 MPH (6 knots; 3.1 m/s)
Visibility: 6 or more miles (10+ km)
Ceiling: ceiling and visibility are OK
Clouds: unknown
Weather: no significant weather observed at this time

METAR text: UWKD 191130Z 06003MPS CAVOK 09/M15 Q1026 R29/70D NOSIG RMK QFE758/1011
Conditions at: UWKD (KAZAN , RU) observed 1130 UTC 19 April 2019
Temperature: 9.0°C (48°F)
Dewpoint: -15.0°C ( 5°F) [RH = 17%]
Pressure (altimeter): 30.30 inches Hg (1026.0 mb)
Winds: from the ENE (60 degrees) at 7 MPH (6 knots; 3.1 m/s)
Visibility: 6 or more miles (10+ km)
Ceiling: ceiling and visibility are OK
Clouds: unknown
Weather: no significant weather observed at this time

METAR text: UWKD 191100Z 05003MPS CAVOK 09/M14 Q1026 R29/CLRD70 NOSIG RMK QFE758/1011
Conditions at: UWKD (KAZAN , RU) observed 1100 UTC 19 April 2019
Temperature: 9.0°C (48°F)
Dewpoint: -14.0°C ( 7°F) [RH = 18%]
Pressure (altimeter): 30.30 inches Hg (1026.0 mb)
Winds: from the NE (50 degrees) at 7 MPH (6 knots; 3.1 m/s)
Visibility: 6 or more miles (10+ km)
Ceiling: ceiling and visibility are OK
Clouds: unknown
Weather: no significant weather observed at this time

METAR text: UWKD 191030Z 03003MPS 360V070 CAVOK 09/M15 Q1026 R29/CLRD70 NOSIG RMK QFE758/1011
Conditions at: UWKD (KAZAN , RU) observed 1030 UTC 19 April 2019
Temperature: 9.0°C (48°F)
Dewpoint: -15.0°C ( 5°F) [RH = 17%]
Pressure (altimeter): 30.30 inches Hg (1026.0 mb)
Winds: from the NNE (30 degrees) at 7 MPH (6 knots; 3.1 m/s)
Visibility: 6 or more miles (10+ km)
Ceiling: ceiling and visibility are OK
Clouds: unknown
Weather: no significant weather observed at this time

METAR text: UWKD 191000Z 05003MPS 350V120 CAVOK 09/M15 Q1027 R29/CLRD70 NOSIG RMK QFE759/1012
Conditions at: UWKD (KAZAN , RU) observed 1000 UTC 19 April 2019
Temperature: 9.0°C (48°F)
Dewpoint: -15.0°C ( 5°F) [RH = 17%]
Pressure (altimeter): 30.32 inches Hg (1027.0 mb)
Winds: from the NE (50 degrees) at 7 MPH (6 knots; 3.1 m/s)
Visibility: 6 or more miles (10+ km)
Ceiling: ceiling and visibility are OK
Clouds: unknown
Weather: no significant weather observed at this time

METAR text: UWKD 190930Z 01003G08MPS 300V070 CAVOK 09/M15 Q1027 R29/CLRD70 NOSIG RMK QFE759/1012
Conditions at: UWKD (KAZAN , RU) observed 0930 UTC 19 April 2019
Temperature: 9.0°C (48°F)
Dewpoint: -15.0°C ( 5°F) [RH = 17%]
Pressure (altimeter): 30.32 inches Hg (1027.0 mb)
Winds: from the N (10 degrees) at 7 MPH (6 knots; 3.1 m/s)
gusting to 18 MPH (16 knots; 8.2 m/s)
Visibility: 6 or more miles (10+ km)
Ceiling: ceiling and visibility are OK
Clouds: unknown
Weather: no significant weather observed at this time

METAR text: UWKD 190900Z 33002MPS CAVOK 09/M14 Q1027 R29/CLRD70 NOSIG RMK QFE759/1012
Conditions at: UWKD (KAZAN , RU) observed 0900 UTC 19 April 2019
Temperature: 9.0°C (48°F)
Dewpoint: -14.0°C ( 7°F) [RH = 18%]
Pressure (altimeter): 30.32 inches Hg (1027.0 mb)
Winds: from the NNW (330 degrees) at 5 MPH (4 knots; 2.1 m/s)
Visibility: 6 or more miles (10+ km)
Ceiling: ceiling and visibility are OK
Clouds: unknown
Weather: no significant weather observed at this time

METAR text: UWKD 190830Z 33004MPS 300V040 CAVOK 09/M12 Q1027 R29/70D NOSIG RMK QFE759/1012
Conditions at: UWKD (KAZAN , RU) observed 0830 UTC 19 April 2019
Temperature: 9.0°C (48°F)
Dewpoint: -12.0°C (10°F) [RH = 21%]
Pressure (altimeter): 30.32 inches Hg (1027.0 mb)
Winds: from the NNW (330 degrees) at 9 MPH (8 knots; 4.1 m/s)
Visibility: 6 or more miles (10+ km)
Ceiling: ceiling and visibility are OK
Clouds: unknown
Weather: no significant weather observed at this time

METAR text: UWKD 190800Z 29003MPS CAVOK 08/M14 Q1027 R29/70D NOSIG RMK QFE759/1012
Conditions at: UWKD (KAZAN , RU) observed 0800 UTC 19 April 2019
Temperature: 8.0°C (46°F)
Dewpoint: -14.0°C ( 7°F) [RH = 19%]
Pressure (altimeter): 30.32 inches Hg (1027.0 mb)
Winds: from the WNW (290 degrees) at 7 MPH (6 knots; 3.1 m/s)
Visibility: 6 or more miles (10+ km)
Ceiling: ceiling and visibility are OK
Clouds: unknown
Weather: no significant weather observed at this time

METAR text: UWKD 190730Z 31003MPS 260V020 CAVOK 07/M13 Q1028 R29/CLRD70 NOSIG RMK QFE760/1013
Conditions at: UWKD (KAZAN , RU) observed 0730 UTC 19 April 2019
Temperature: 7.0°C (45°F)
Dewpoint: -13.0°C ( 9°F) [RH = 22%]
Pressure (altimeter): 30.35 inches Hg (1028.0 mb)
Winds: from the NW (310 degrees) at 7 MPH (6 knots; 3.1 m/s)
Visibility: 6 or more miles (10+ km)
Ceiling: ceiling and visibility are OK
Clouds: unknown
Weather: no significant weather observed at this time

METAR text: UWKD 190700Z 32003MPS 270V360 CAVOK 07/M15 Q1028 R29/70D NOSIG RMK QFE760/1013
Conditions at: UWKD (KAZAN , RU) observed 0700 UTC 19 April 2019
Temperature: 7.0°C (45°F)
Dewpoint: -15.0°C ( 5°F) [RH = 19%]
Pressure (altimeter): 30.35 inches Hg (1028.0 mb)
Winds: from the NW (320 degrees) at 7 MPH (6 knots; 3.1 m/s)
Visibility: 6 or more miles (10+ km)
Ceiling: ceiling and visibility are OK
Clouds: unknown
Weather: no significant weather observed at this time

METAR text: UWKD 190630Z 31003MPS 270V010 CAVOK 07/M13 Q1028 R29/70D NOSIG RMK QFE760/1013
Conditions at: UWKD (KAZAN , RU) observed 0630 UTC 19 April 2019
Temperature: 7.0°C (45°F)
Dewpoint: -13.0°C ( 9°F) [RH = 22%]
Pressure (altimeter): 30.35 inches Hg (1028.0 mb)
Winds: from the NW (310 degrees) at 7 MPH (6 knots; 3.1 m/s)
Visibility: 6 or more miles (10+ km)
Ceiling: ceiling and visibility are OK
Clouds: unknown
Weather: no significant weather observed at this time

METAR text: UWKD 190600Z 33003MPS 300V010 CAVOK 06/M12 Q1028 R29/CLRD70 NOSIG RMK QFE760/1013
Conditions at: UWKD (KAZAN , RU) observed 0600 UTC 19 April 2019
Temperature: 6.0°C (43°F)
Dewpoint: -12.0°C (10°F) [RH = 26%]
Pressure (altimeter): 30.35 inches Hg (1028.0 mb)
Winds: from the NNW (330 degrees) at 7 MPH (6 knots; 3.1 m/s)
Visibility: 6 or more miles (10+ km)
Ceiling: ceiling and visibility are OK
Clouds: unknown
Weather: no significant weather observed at this time

METAR text: UWKD 190530Z 32004MPS 290V350 CAVOK 05/M11 Q1028 R29/70D NOSIG RMK QFE760/1013
Conditions at: UWKD (KAZAN , RU) observed 0530 UTC 19 April 2019
Temperature: 5.0°C (41°F)
Dewpoint: -11.0°C (12°F) [RH = 30%]
Pressure (altimeter): 30.35 inches Hg (1028.0 mb)
Winds: from the NW (320 degrees) at 9 MPH (8 knots; 4.1 m/s)
Visibility: 6 or more miles (10+ km)
Ceiling: ceiling and visibility are OK
Clouds: unknown
Weather: no significant weather observed at this time

METAR text: UWKD 190500Z 33004MPS CAVOK 04/M08 Q1028 R29/70D NOSIG RMK QFE760/1013
Conditions at: UWKD (KAZAN , RU) observed 0500 UTC 19 April 2019
Temperature: 4.0°C (39°F)
Dewpoint: -8.0°C (18°F) [RH = 41%]
Pressure (altimeter): 30.35 inches Hg (1028.0 mb)
Winds: from the NNW (330 degrees) at 9 MPH (8 knots; 4.1 m/s)
Visibility: 6 or more miles (10+ km)
Ceiling: ceiling and visibility are OK
Clouds: unknown
Weather: no significant weather observed at this time

METAR text: UWKD 190430Z 32003MPS CAVOK 02/M06 Q1029 R29/CLRD70 NOSIG RMK QFE760/1014
Conditions at: UWKD (KAZAN , RU) observed 0430 UTC 19 April 2019
Temperature: 2.0°C (36°F)
Dewpoint: -6.0°C (21°F) [RH = 55%]
Pressure (altimeter): 30.38 inches Hg (1029.0 mb)
Winds: from the NW (320 degrees) at 7 MPH (6 knots; 3.1 m/s)
Visibility: 6 or more miles (10+ km)
Ceiling: ceiling and visibility are OK
Clouds: unknown
Weather: no significant weather observed at this time

METAR text: UWKD 190400Z 31002MPS CAVOK 01/M06 Q1029 R29/CLRD70 NOSIG RMK QFE760/1014
Conditions at: UWKD (KAZAN , RU) observed 0400 UTC 19 April 2019
Temperature: 1.0°C (34°F)
Dewpoint: -6.0°C (21°F) [RH = 59%]
Pressure (altimeter): 30.38 inches Hg (1029.0 mb)
Winds: from the NW (310 degrees) at 5 MPH (4 knots; 2.1 m/s)
Visibility: 6 or more miles (10+ km)
Ceiling: ceiling and visibility are OK
Clouds: unknown
Weather: no significant weather observed at this time

METAR text: UWKD 190330Z 32002MPS CAVOK M00/M05 Q1029 R29/CLRD70 NOSIG RMK QFE760/1014
Conditions at: UWKD (KAZAN , RU) observed 0330 UTC 19 April 2019
Temperature: 0.0°C (32°F)
Dewpoint: -5.0°C (23°F) [RH = 69%]
Pressure (altimeter): 30.38 inches Hg (1029.0 mb)
Winds: from the NW (320 degrees) at 5 MPH (4 knots; 2.1 m/s)
Visibility: 6 or more miles (10+ km)
Ceiling: ceiling and visibility are OK
Clouds: unknown
Weather: no significant weather observed at this time

METAR text: UWKD 190300Z 00000MPS CAVOK M01/M06 Q1029 R29/CLRD70 NOSIG RMK QFE760/1014
Conditions at: UWKD (KAZAN , RU) observed 0300 UTC 19 April 2019
Temperature: -1.0°C (30°F)
Dewpoint: -6.0°C (21°F) [RH = 69%]
Pressure (altimeter): 30.38 inches Hg (1029.0 mb)
Winds: calm
Visibility: 6 or more miles (10+ km)
Ceiling: ceiling and visibility are OK
Clouds: unknown
Weather: no significant weather observed at this time

METAR text: UWKD 190230Z 35002MPS CAVOK M03/M06 Q1029 R29/CLRD70 NOSIG RMK QFE760/1014
Conditions at: UWKD (KAZAN , RU) observed 0230 UTC 19 April 2019
Temperature: -3.0°C (27°F)
Dewpoint: -6.0°C (21°F) [RH = 80%]
Pressure (altimeter): 30.38 inches Hg (1029.0 mb)
Winds: from the N (350 degrees) at 5 MPH (4 knots; 2.1 m/s)
Visibility: 6 or more miles (10+ km)
Ceiling: ceiling and visibility are OK
Clouds: unknown
Weather: no significant weather observed at this time

METAR text: UWKD 190200Z 35003MPS CAVOK M04/M08 Q1029 R29/CLRD70 NOSIG RMK QFE760/1014
Conditions at: UWKD (KAZAN , RU) observed 0200 UTC 19 April 2019
Temperature: -4.0°C (25°F)
Dewpoint: -8.0°C (18°F) [RH = 74%]
Pressure (altimeter): 30.38 inches Hg (1029.0 mb)
Winds: from the N (350 degrees) at 7 MPH (6 knots; 3.1 m/s)
Visibility: 6 or more miles (10+ km)
Ceiling: ceiling and visibility are OK
Clouds: unknown
Weather: no significant weather observed at this time

METAR text: UWKD 190130Z 35003MPS CAVOK M04/M08 Q1029 R29/CLRD70 NOSIG RMK QFE760/1014
Conditions at: UWKD (KAZAN , RU) observed 0130 UTC 19 April 2019
Temperature: -4.0°C (25°F)
Dewpoint: -8.0°C (18°F) [RH = 74%]
Pressure (altimeter): 30.38 inches Hg (1029.0 mb)
Winds: from the N (350 degrees) at 7 MPH (6 knots; 3.1 m/s)
Visibility: 6 or more miles (10+ km)
Ceiling: ceiling and visibility are OK
Clouds: unknown
Weather: no significant weather observed at this time

METAR text: UWKD 190100Z 35003MPS CAVOK M03/M08 Q1029 R29/CLRD70 NOSIG RMK QFE760/1014
Conditions at: UWKD (KAZAN , RU) observed 0100 UTC 19 April 2019
Temperature: -3.0°C (27°F)
Dewpoint: -8.0°C (18°F) [RH = 68%]
Pressure (altimeter): 30.38 inches Hg (1029.0 mb)
Winds: from the N (350 degrees) at 7 MPH (6 knots; 3.1 m/s)
Visibility: 6 or more miles (10+ km)
Ceiling: ceiling and visibility are OK
Clouds: unknown
Weather: no significant weather observed at this time

METAR text: UWKD 190030Z 34003MPS CAVOK M03/M09 Q1029 R29/CLRD70 NOSIG RMK QFE760/1014
Conditions at: UWKD (KAZAN , RU) observed 0030 UTC 19 April 2019
Temperature: -3.0°C (27°F)
Dewpoint: -9.0°C (16°F) [RH = 63%]
Pressure (altimeter): 30.38 inches Hg (1029.0 mb)
Winds: from the NNW (340 degrees) at 7 MPH (6 knots; 3.1 m/s)
Visibility: 6 or more miles (10+ km)
Ceiling: ceiling and visibility are OK
Clouds: unknown
Weather: no significant weather observed at this time

METAR text: UWKD 190000Z 34002MPS CAVOK M02/M10 Q1029 R29/70D NOSIG RMK QFE760/1014
Conditions at: UWKD (KAZAN , RU) observed 0000 UTC 19 April 2019
Temperature: -2.0°C (28°F)
Dewpoint: -10.0°C (14°F) [RH = 54%]
Pressure (altimeter): 30.38 inches Hg (1029.0 mb)
Winds: from the NNW (340 degrees) at 5 MPH (4 knots; 2.1 m/s)
Visibility: 6 or more miles (10+ km)
Ceiling: ceiling and visibility are OK
Clouds: unknown
Weather: no significant weather observed at this time

METAR text: UWKD 182330Z VRB01MPS CAVOK M03/M07 Q1029 R11/70D NOSIG RMK QFE761/1015
Conditions at: UWKD (KAZAN , RU) observed 2330 UTC 18 April 2019
Temperature: -3.0°C (27°F)
Dewpoint: -7.0°C (19°F) [RH = 74%]
Pressure (altimeter): 30.38 inches Hg (1029.0 mb)
Winds: variable direction winds at 2 MPH (2 knots; 1.0 m/s)
Visibility: 6 or more miles (10+ km)
Ceiling: ceiling and visibility are OK
Clouds: unknown
Weather: no significant weather observed at this time

METAR text: UWKD 182300Z VRB01MPS CAVOK M01/M10 Q1029 R11/70D NOSIG RMK QFE761/1015
Conditions at: UWKD (KAZAN , RU) observed 2300 UTC 18 April 2019
Temperature: -1.0°C (30°F)
Dewpoint: -10.0°C (14°F) [RH = 50%]
Pressure (altimeter): 30.38 inches Hg (1029.0 mb)
Winds: variable direction winds at 2 MPH (2 knots; 1.0 m/s)
Visibility: 6 or more miles (10+ km)
Ceiling: ceiling and visibility are OK
Clouds: unknown
Weather: no significant weather observed at this time

METAR text: UWKD 182230Z 35001MPS CAVOK M02/M09 Q1029 R11/CLRD70 NOSIG RMK QFE761/1015
Conditions at: UWKD (KAZAN , RU) observed 2230 UTC 18 April 2019
Temperature: -2.0°C (28°F)
Dewpoint: -9.0°C (16°F) [RH = 59%]
Pressure (altimeter): 30.38 inches Hg (1029.0 mb)
Winds: from the N (350 degrees) at 2 MPH (2 knots; 1.0 m/s)
Visibility: 6 or more miles (10+ km)
Ceiling: ceiling and visibility are OK
Clouds: unknown
Weather: no significant weather observed at this time

METAR text: UWKD 182200Z VRB01MPS CAVOK M02/M10 Q1029 R11/70D NOSIG RMK QFE761/1015
Conditions at: UWKD (KAZAN , RU) observed 2200 UTC 18 April 2019
Temperature: -2.0°C (28°F)
Dewpoint: -10.0°C (14°F) [RH = 54%]
Pressure (altimeter): 30.38 inches Hg (1029.0 mb)
Winds: variable direction winds at 2 MPH (2 knots; 1.0 m/s)
Visibility: 6 or more miles (10+ km)
Ceiling: ceiling and visibility are OK
Clouds: unknown
Weather: no significant weather observed at this time

METAR text: UWKD 182130Z 02001MPS CAVOK M02/M08 Q1029 R11/CLRD70 NOSIG RMK QFE761/1015
Conditions at: UWKD (KAZAN , RU) observed 2130 UTC 18 April 2019
Temperature: -2.0°C (28°F)
Dewpoint: -8.0°C (18°F) [RH = 63%]
Pressure (altimeter): 30.38 inches Hg (1029.0 mb)
Winds: from the NNE (20 degrees) at 2 MPH (2 knots; 1.0 m/s)
Visibility: 6 or more miles (10+ km)
Ceiling: ceiling and visibility are OK
Clouds: unknown
Weather: no significant weather observed at this time

METAR text: UWKD 182100Z VRB01MPS CAVOK M02/M08 Q1029 R11/70D NOSIG RMK QFE761/1015
Conditions at: UWKD (KAZAN , RU) observed 2100 UTC 18 April 2019
Temperature: -2.0°C (28°F)
Dewpoint: -8.0°C (18°F) [RH = 63%]
Pressure (altimeter): 30.38 inches Hg (1029.0 mb)
Winds: variable direction winds at 2 MPH (2 knots; 1.0 m/s)
Visibility: 6 or more miles (10+ km)
Ceiling: ceiling and visibility are OK
Clouds: unknown
Weather: no significant weather observed at this time

METAR text: UWKD 182030Z 00000MPS CAVOK M02/M09 Q1029 R11/CLRD70 NOSIG RMK QFE761/1015
Conditions at: UWKD (KAZAN , RU) observed 2030 UTC 18 April 2019
Temperature: -2.0°C (28°F)
Dewpoint: -9.0°C (16°F) [RH = 59%]
Pressure (altimeter): 30.38 inches Hg (1029.0 mb)
Winds: calm
Visibility: 6 or more miles (10+ km)
Ceiling: ceiling and visibility are OK
Clouds: unknown
Weather: no significant weather observed at this time

METAR text: UWKD 182000Z 19001MPS CAVOK M05/M09 Q1029 R11/CLRD70 NOSIG RMK QFE761/1015
Conditions at: UWKD (KAZAN , RU) observed 2000 UTC 18 April 2019
Temperature: -5.0°C (23°F)
Dewpoint: -9.0°C (16°F) [RH = 73%]
Pressure (altimeter): 30.38 inches Hg (1029.0 mb)
Winds: from the S (190 degrees) at 2 MPH (2 knots; 1.0 m/s)
Visibility: 6 or more miles (10+ km)
Ceiling: ceiling and visibility are OK
Clouds: unknown
Weather: no significant weather observed at this time

METAR text: UWKD 181930Z 19002MPS CAVOK M01/M09 Q1029 R11/70D NOSIG RMK QFE761/1015
Conditions at: UWKD (KAZAN , RU) observed 1930 UTC 18 April 2019
Temperature: -1.0°C (30°F)
Dewpoint: -9.0°C (16°F) [RH = 55%]
Pressure (altimeter): 30.38 inches Hg (1029.0 mb)
Winds: from the S (190 degrees) at 5 MPH (4 knots; 2.1 m/s)
Visibility: 6 or more miles (10+ km)
Ceiling: ceiling and visibility are OK
Clouds: unknown
Weather: no significant weather observed at this time

METAR text: UWKD 181900Z 18002MPS CAVOK M00/M08 Q1029 R11/70D NOSIG RMK QFE762/1016
Conditions at: UWKD (KAZAN , RU) observed 1900 UTC 18 April 2019
Temperature: 0.0°C (32°F)
Dewpoint: -8.0°C (18°F) [RH = 55%]
Pressure (altimeter): 30.38 inches Hg (1029.0 mb)
Winds: from the S (180 degrees) at 5 MPH (4 knots; 2.1 m/s)
Visibility: 6 or more miles (10+ km)
Ceiling: ceiling and visibility are OK
Clouds: unknown
Weather: no significant weather observed at this time

METAR text: UWKD 181830Z 17002MPS CAVOK 00/M10 Q1029 R11/70D NOSIG RMK QFE762/1016
Conditions at: UWKD (KAZAN , RU) observed 1830 UTC 18 April 2019
Temperature: 0.0°C (32°F)
Dewpoint: -10.0°C (14°F) [RH = 47%]
Pressure (altimeter): 30.38 inches Hg (1029.0 mb)
Winds: from the S (170 degrees) at 5 MPH (4 knots; 2.1 m/s)
Visibility: 6 or more miles (10+ km)
Ceiling: ceiling and visibility are OK
Clouds: unknown
Weather: no significant weather observed at this time

METAR text: UWKD 181800Z 18002MPS CAVOK M00/M09 Q1029 R11/CLRD70 NOSIG RMK QFE762/1016
Conditions at: UWKD (KAZAN , RU) observed 1800 UTC 18 April 2019
Temperature: 0.0°C (32°F)
Dewpoint: -9.0°C (16°F) [RH = 51%]
Pressure (altimeter): 30.38 inches Hg (1029.0 mb)
Winds: from the S (180 degrees) at 5 MPH (4 knots; 2.1 m/s)
Visibility: 6 or more miles (10+ km)
Ceiling: ceiling and visibility are OK
Clouds: unknown
Weather: no significant weather observed at this time

METAR text: UWKD 181730Z 17002MPS CAVOK M01/M07 Q1029 R11/70D NOSIG RMK QFE762/1016
Conditions at: UWKD (KAZAN , RU) observed 1730 UTC 18 April 2019
Temperature: -1.0°C (30°F)
Dewpoint: -7.0°C (19°F) [RH = 64%]
Pressure (altimeter): 30.38 inches Hg (1029.0 mb)
Winds: from the S (170 degrees) at 5 MPH (4 knots; 2.1 m/s)
Visibility: 6 or more miles (10+ km)
Ceiling: ceiling and visibility are OK
Clouds: unknown
Weather: no significant weather observed at this time

METAR text: UWKD 181700Z 15003MPS 110V200 CAVOK M00/M08 Q1029 R11/70D NOSIG RMK QFE762/1016
Conditions at: UWKD (KAZAN , RU) observed 1700 UTC 18 April 2019
Temperature: 0.0°C (32°F)
Dewpoint: -8.0°C (18°F) [RH = 55%]
Pressure (altimeter): 30.38 inches Hg (1029.0 mb)
Winds: from the SSE (150 degrees) at 7 MPH (6 knots; 3.1 m/s)
Visibility: 6 or more miles (10+ km)
Ceiling: ceiling and visibility are OK
Clouds: unknown
Weather: no significant weather observed at this time

METAR text: UWKD 181630Z 18002MPS CAVOK 01/M08 Q1029 R11/70D NOSIG RMK QFE761/1015
Conditions at: UWKD (KAZAN , RU) observed 1630 UTC 18 April 2019
Temperature: 1.0°C (34°F)
Dewpoint: -8.0°C (18°F) [RH = 51%]
Pressure (altimeter): 30.38 inches Hg (1029.0 mb)
Winds: from the S (180 degrees) at 5 MPH (4 knots; 2.1 m/s)
Visibility: 6 or more miles (10+ km)
Ceiling: ceiling and visibility are OK
Clouds: unknown
Weather: no significant weather observed at this time

METAR text: UWKD 181600Z 18002MPS CAVOK 01/M08 Q1029 R29/70D NOSIG RMK QFE760/1014
Conditions at: UWKD (KAZAN , RU) observed 1600 UTC 18 April 2019
Temperature: 1.0°C (34°F)
Dewpoint: -8.0°C (18°F) [RH = 51%]
Pressure (altimeter): 30.38 inches Hg (1029.0 mb)
Winds: from the S (180 degrees) at 5 MPH (4 knots; 2.1 m/s)
Visibility: 6 or more miles (10+ km)
Ceiling: ceiling and visibility are OK
Clouds: unknown
Weather: no significant weather observed at this time

METAR text: UWKD 181530Z 21002MPS CAVOK 03/M07 Q1029 R29/70D NOSIG RMK QFE760/1014
Conditions at: UWKD (KAZAN , RU) observed 1530 UTC 18 April 2019
Temperature: 3.0°C (37°F)
Dewpoint: -7.0°C (19°F) [RH = 48%]
Pressure (altimeter): 30.38 inches Hg (1029.0 mb)
Winds: from the SSW (210 degrees) at 5 MPH (4 knots; 2.1 m/s)
Visibility: 6 or more miles (10+ km)
Ceiling: ceiling and visibility are OK
Clouds: unknown
Weather: no significant weather observed at this time

METAR text: UWKD 181500Z 18003MPS CAVOK 05/M11 Q1028 R29/CLRD70 NOSIG RMK QFE760/1013
Conditions at: UWKD (KAZAN , RU) observed 1500 UTC 18 April 2019
Temperature: 5.0°C (41°F)
Dewpoint: -11.0°C (12°F) [RH = 30%]
Pressure (altimeter): 30.35 inches Hg (1028.0 mb)
Winds: from the S (180 degrees) at 7 MPH (6 knots; 3.1 m/s)
Visibility: 6 or more miles (10+ km)
Ceiling: ceiling and visibility are OK
Clouds: unknown
Weather: no significant weather observed at this time

METAR text: UWKD 181430Z VRB01MPS CAVOK 05/M12 Q1029 R29/70D NOSIG RMK QFE760/1014
Conditions at: UWKD (KAZAN , RU) observed 1430 UTC 18 April 2019
Temperature: 5.0°C (41°F)
Dewpoint: -12.0°C (10°F) [RH = 28%]
Pressure (altimeter): 30.38 inches Hg (1029.0 mb)
Winds: variable direction winds at 2 MPH (2 knots; 1.0 m/s)
Visibility: 6 or more miles (10+ km)
Ceiling: ceiling and visibility are OK
Clouds: unknown
Weather: no significant weather observed at this time

METAR text: UWKD 181400Z VRB01MPS CAVOK 06/M13 Q1029 R29/70D NOSIG RMK QFE760/1014
Conditions at: UWKD (KAZAN , RU) observed 1400 UTC 18 April 2019
Temperature: 6.0°C (43°F)
Dewpoint: -13.0°C ( 9°F) [RH = 24%]
Pressure (altimeter): 30.38 inches Hg (1029.0 mb)
Winds: variable direction winds at 2 MPH (2 knots; 1.0 m/s)
Visibility: 6 or more miles (10+ km)
Ceiling: ceiling and visibility are OK
Clouds: unknown
Weather: no significant weather observed at this time

METAR text: UWKD 181330Z VRB01MPS CAVOK 06/M13 Q1029 R29/70D NOSIG RMK QFE760/1014
Conditions at: UWKD (KAZAN , RU) observed 1330 UTC 18 April 2019
Temperature: 6.0°C (43°F)
Dewpoint: -13.0°C ( 9°F) [RH = 24%]
Pressure (altimeter): 30.38 inches Hg (1029.0 mb)
Winds: variable direction winds at 2 MPH (2 knots; 1.0 m/s)
Visibility: 6 or more miles (10+ km)
Ceiling: ceiling and visibility are OK
Clouds: unknown
Weather: no significant weather observed at this time

METAR text: UWKD 181300Z VRB01MPS CAVOK 06/M13 Q1029 R29/CLRD70 NOSIG RMK QFE760/1014
Conditions at: UWKD (KAZAN , RU) observed 1300 UTC 18 April 2019
Temperature: 6.0°C (43°F)
Dewpoint: -13.0°C ( 9°F) [RH = 24%]
Pressure (altimeter): 30.38 inches Hg (1029.0 mb)
Winds: variable direction winds at 2 MPH (2 knots; 1.0 m/s)
Visibility: 6 or more miles (10+ km)
Ceiling: ceiling and visibility are OK
Clouds: unknown
Weather: no significant weather observed at this time

METAR text: UWKD 181230Z VRB01MPS CAVOK 05/M13 Q1029 R29/CLRD70 NOSIG RMK QFE760/1014
Conditions at: UWKD (KAZAN , RU) observed 1230 UTC 18 April 2019
Temperature: 5.0°C (41°F)
Dewpoint: -13.0°C ( 9°F) [RH = 26%]
Pressure (altimeter): 30.38 inches Hg (1029.0 mb)
Winds: variable direction winds at 2 MPH (2 knots; 1.0 m/s)
Visibility: 6 or more miles (10+ km)
Ceiling: ceiling and visibility are OK
Clouds: unknown
Weather: no significant weather observed at this time

Forecast for: UWKD (KAZAN , RU)
Text: TAF UWKD 192300Z 2000/2024 VRB01MPS CAVOK TX13/2012Z TN01/2003Z
Forecast period: 0000 to 0500 UTC 20 April 2019
Forecast type: FROM: standard forecast or significant change
Winds: variable direction winds at 2 MPH (2 knots; 1.0 m/s)
Visibility: 6 or more miles 10+ km)
Ceiling: unknown
Clouds: missing
Weather: no significant weather forecast for this period
Text: BECMG 2005/2007 27003MPS
Forecast period: 0500 UTC 20 April 2019 to 0000 UTC 21 April 2019
Forecast type: BECOMING: Conditions expected to become as follows by 0700 UTC 20 April 2019
Winds: from the W (270 degrees) at 7 MPH (6 knots; 3.1 m/s)
Visibility: 6 or more miles 10+ km)
Ceiling: unknown
Clouds: missing
Weather: no significant weather forecast for this period